Time;durP1;ratioP1;P1;durP2;ratioP2;P2;SDS_P1;SDS_P2;PMS_P1;PMS_P2;Temp;Humidity;BMP_temperature;BMP_pressure;BME280_temperature;BME280_humidity;BME280_pressure;Samples;Min_cycle;Max_cycle;Signal;HPM_P1;HPM_P2
2022/03/23 00:01:51;;;;;;;9.65;4.75;;;;;;;-0.76;69.21;96661.88;5102412;28;20036;-74
2022/03/23 00:04:16;;;;;;;12.15;4.50;;;;;;;-0.70;69.19;96655.22;5091721;28;20101;-75
2022/03/23 00:06:43;;;;;;;13.32;5.22;;;;;;;-0.61;68.88;96659.34;5112460;28;20043;-75
2022/03/23 00:09:09;;;;;;;11.40;3.88;;;;;;;-0.54;69.23;96665.44;5105093;28;20035;-75
2022/03/23 00:11:34;;;;;;;11.75;4.30;;;;;;;-0.57;69.25;96660.63;5107968;28;20047;-75
2022/03/23 00:14:00;;;;;;;6.88;3.85;;;;;;;-0.69;70.06;96661.97;5093861;28;20066;-75
2022/03/23 00:16:25;;;;;;;12.10;4.35;;;;;;;-0.68;69.44;96653.25;5074346;28;20119;-75
2022/03/23 00:18:51;;;;;;;10.00;4.70;;;;;;;-0.68;69.78;96653.25;5095734;28;20412;-76
2022/03/23 00:21:16;;;;;;;9.30;4.15;;;;;;;-0.73;69.83;96655.56;5107404;28;20043;-75
2022/03/23 00:23:42;;;;;;;9.88;4.65;;;;;;;-0.68;69.71;96658.41;5098286;28;20051;-75
2022/03/23 00:26:08;;;;;;;7.95;4.22;;;;;;;-0.72;69.31;96645.03;5091627;28;20496;-75
2022/03/23 00:28:34;;;;;;;10.75;4.57;;;;;;;-0.71;69.80;96648.41;5096692;28;20039;-75
2022/03/23 00:31:00;;;;;;;11.23;4.95;;;;;;;-0.70;70.19;96650.03;5099105;28;20084;-75
2022/03/23 00:33:25;;;;;;;8.95;4.88;;;;;;;-0.78;70.22;96652.66;5084675;28;20092;-75
2022/03/23 00:35:51;;;;;;;9.45;4.63;;;;;;;-0.82;71.15;96651.38;5110736;28;20044;-75
2022/03/23 00:38:18;;;;;;;9.63;4.70;;;;;;;-0.85;71.02;96652.53;5109641;28;20067;-75
2022/03/23 00:40:44;;;;;;;11.20;4.72;;;;;;;-0.95;70.85;96652.75;5096501;28;20049;-75
2022/03/23 00:43:11;;;;;;;9.30;4.80;;;;;;;-0.97;71.22;96649.50;5072422;28;20553;-75
2022/03/23 00:45:37;;;;;;;11.88;4.80;;;;;;;-0.95;71.42;96657.09;5085186;28;20051;-75
2022/03/23 00:48:04;;;;;;;8.30;4.85;;;;;;;-1.11;71.68;96647.63;5107149;28;20550;-75
2022/03/23 00:50:30;;;;;;;18.08;4.72;;;;;;;-1.15;72.07;96646.34;5098656;28;20054;-75
2022/03/23 00:52:55;;;;;;;9.98;4.68;;;;;;;-1.18;71.69;96646.69;5107750;28;20044;-75
2022/03/23 00:55:21;;;;;;;10.10;4.78;;;;;;;-1.14;71.45;96642.81;5104369;28;20040;-75
2022/03/23 00:57:47;;;;;;;10.10;5.15;;;;;;;-1.11;71.56;96645.03;5091171;28;20558;-75
2022/03/23 01:00:16;;;;;;;9.63;4.97;;;;;;;-1.01;71.51;96644.84;5091153;28;20044;-75
2022/03/23 01:02:43;;;;;;;8.80;4.75;;;;;;;-1.11;72.18;96642.47;5091077;28;20445;-75
2022/03/23 01:05:11;;;;;;;14.27;4.78;;;;;;;-1.12;72.33;96640.84;5094600;28;20040;-75
2022/03/23 01:07:38;;;;;;;11.52;4.72;;;;;;;-1.11;71.99;96642.47;5105341;28;20709;-74
2022/03/23 01:10:05;;;;;;;21.08;4.82;;;;;;;-1.17;72.43;96640.56;5093224;28;20519;-75
2022/03/23 01:12:31;;;;;;;11.55;4.55;;;;;;;-1.18;72.19;96638.94;5101318;28;20039;-75
2022/03/23 01:14:58;;;;;;;11.50;4.85;;;;;;;-1.21;72.67;96647.81;5091514;28;20043;-75
2022/03/23 01:17:24;;;;;;;8.45;4.65;;;;;;;-1.26;72.95;96635.41;5091169;28;20087;-75
2022/03/23 01:19:50;;;;;;;8.85;4.85;;;;;;;-1.23;72.80;96640.25;5095057;28;20405;-75
2022/03/23 01:22:16;;;;;;;10.70;4.85;;;;;;;-1.17;72.67;96637.97;5101800;28;20114;-75
2022/03/23 01:24:43;;;;;;;8.50;4.63;;;;;;;-1.34;72.95;96638.00;5100607;28;20100;-75
2022/03/23 01:27:08;;;;;;;10.35;4.90;;;;;;;-1.37;73.60;96638.34;5103898;27;20106;-75
2022/03/23 01:29:34;;;;;;;9.15;4.55;;;;;;;-1.43;74.56;96636.44;5090886;28;20062;-75
2022/03/23 01:32:00;;;;;;;7.68;4.40;;;;;;;-1.53;74.79;96644.38;5107581;28;20059;-75
2022/03/23 01:34:25;;;;;;;12.90;5.05;;;;;;;-1.40;74.04;96643.84;5090412;28;20421;-75
2022/03/23 01:36:51;;;;;;;9.60;4.78;;;;;;;-1.34;73.52;96643.19;5105730;28;20047;-74
2022/03/23 01:39:17;;;;;;;11.63;4.88;;;;;;;-1.47;74.13;96642.91;5090766;28;20050;-75
2022/03/23 01:41:42;;;;;;;8.32;4.40;;;;;;;-1.54;74.22;96636.78;5107793;28;20119;-75
2022/03/23 01:44:20;;;;;;;9.45;4.60;;;;;;;-1.55;75.05;96646.31;5094388;28;20382;-75
2022/03/23 01:47:08;;;;;;;8.63;4.75;;;;;;;-1.59;75.26;96640.66;5103571;28;20039;-74
2022/03/23 01:49:36;;;;;;;8.65;4.70;;;;;;;-1.48;74.88;96646.44;5094409;28;20043;-74
2022/03/23 01:52:05;;;;;;;11.55;4.82;;;;;;;-1.46;74.81;96639.34;5105672;28;20624;-74
2022/03/23 01:54:30;;;;;;;8.07;4.22;;;;;;;-1.44;74.52;96639.97;5110618;28;20043;-74
2022/03/23 01:56:58;;;;;;;10.73;4.90;;;;;;;-1.43;74.74;96633.84;5107940;28;20047;-74
2022/03/23 01:59:24;;;;;;;10.13;4.95;;;;;;;-1.51;74.99;96631.28;5093153;28;20059;-74
2022/03/23 02:01:49;;;;;;;12.02;5.00;;;;;;;-1.55;75.36;96637.75;5108521;28;20071;-74
2022/03/23 02:04:16;;;;;;;10.43;4.40;;;;;;;-1.50;74.34;96632.91;5101564;28;20410;-74
2022/03/23 02:06:41;;;;;;;10.35;5.10;;;;;;;-1.53;74.53;96643.56;5103743;28;20044;-74
2022/03/23 02:09:07;;;;;;;8.32;4.32;;;;;;;-1.57;74.80;96638.75;5110577;28;20062;-74
2022/03/23 02:11:33;;;;;;;9.32;5.05;;;;;;;-1.63;75.01;96639.38;5092184;28;20040;-74
2022/03/23 02:13:59;;;;;;;12.18;5.10;;;;;;;-1.65;75.03;96636.16;5071408;28;20154;-74
2022/03/23 02:16:24;;;;;;;10.23;4.90;;;;;;;-1.67;75.29;96643.25;5089296;28;20048;-74
2022/03/23 02:18:50;;;;;;;11.27;5.13;;;;;;;-1.62;74.76;96638.41;5103275;28;20036;-74
2022/03/23 02:21:16;;;;;;;10.25;4.55;;;;;;;-1.57;74.76;96628.41;5105889;28;20031;-73
2022/03/23 02:23:41;;;;;;;8.43;4.35;;;;;;;-1.49;74.59;96631.94;5107789;28;20036;-74
2022/03/23 02:26:08;;;;;;;10.90;4.93;;;;;;;-1.63;74.74;96639.38;5089736;28;20067;-73
2022/03/23 02:28:35;;;;;;;9.43;5.05;;;;;;;-1.76;76.09;96628.75;5091767;28;20047;-73
2022/03/23 02:31:01;;;;;;;11.63;5.65;;;;;;;-1.67;76.62;96637.28;5093133;28;20040;-74
2022/03/23 02:33:27;;;;;;;10.13;5.10;;;;;;;-1.71;76.84;96634.25;5089422;28;20460;-74
2022/03/23 02:35:53;;;;;;;9.88;4.90;;;;;;;-1.82;76.62;96639.75;5078237;28;20039;-74
2022/03/23 02:38:19;;;;;;;12.02;4.78;;;;;;;-1.87;76.68;96642.00;5106765;28;20489;-74
2022/03/23 02:40:45;;;;;;;10.95;5.38;;;;;;;-1.86;76.94;96633.28;5107768;28;20055;-74
2022/03/23 02:43:12;;;;;;;9.52;4.97;;;;;;;-1.88;76.41;96630.06;5090671;28;20695;-74
2022/03/23 02:45:38;;;;;;;13.57;4.72;;;;;;;-1.89;77.65;96633.63;5103412;28;20093;-74
2022/03/23 02:48:05;;;;;;;11.23;5.57;;;;;;;-1.80;78.01;96636.00;5071825;28;20037;-74
2022/03/23 02:50:31;;;;;;;9.88;4.93;;;;;;;-1.78;77.06;96630.69;5089348;28;20040;-74
2022/03/23 03:03:58;;;;;;;9.87;4.73;;;;;;;-2.02;78.40;96629.75;5104856;28;20116;-74
2022/03/23 03:06:23;;;;;;;9.82;4.65;;;;;;;-2.00;78.13;96627.81;5104606;28;20132;-74
2022/03/23 03:08:49;;;;;;;8.38;4.50;;;;;;;-1.99;77.57;96629.44;5105022;28;20075;-74
2022/03/23 03:11:17;;;;;;;10.48;5.13;;;;;;;-2.02;78.22;96629.75;5088949;28;20077;-74
2022/03/23 03:13:44;;;;;;;7.85;4.68;;;;;;;-2.04;78.11;96636.03;5088589;28;20455;-74
2022/03/23 03:16:10;;;;;;;9.00;4.82;;;;;;;-2.09;78.22;96631.38;5104372;28;20043;-74
2022/03/23 03:18:35;;;;;;;9.60;4.93;;;;;;;-2.44;80.85;96635.88;5109247;28;20516;-74
2022/03/23 03:21:08;;;;;;;8.73;5.10;;;;;;;-2.55;81.84;96636.19;5091111;28;20500;-74
2022/03/23 03:23:37;;;;;;;11.35;5.30;;;;;;;-2.68;82.07;96634.84;5107694;28;20047;-74
2022/03/23 03:26:05;;;;;;;12.77;5.28;;;;;;;-2.46;80.50;96632.63;5089590;28;20040;-74
2022/03/23 03:28:32;;;;;;;9.57;5.35;;;;;;;-2.35;80.03;96634.91;5089100;28;20493;-74
2022/03/23 03:30:57;;;;;;;11.88;4.90;;;;;;;-2.29;80.31;96634.25;5088671;28;20494;-74
2022/03/23 03:33:23;;;;;;;10.48;5.20;;;;;;;-2.21;79.87;96646.38;5088653;28;20043;-74
2022/03/23 03:35:49;;;;;;;9.60;4.93;;;;;;;-2.20;79.61;96636.84;5094953;28;20055;-74
2022/03/23 03:38:14;;;;;;;9.10;4.88;;;;;;;-2.24;79.81;96640.72;5109303;28;20062;-74
2022/03/23 03:40:40;;;;;;;9.55;5.28;;;;;;;-2.21;80.01;96640.38;5101208;28;20052;-73
2022/03/23 03:43:06;;;;;;;12.10;5.50;;;;;;;-2.36;80.52;96638.44;5104065;28;20420;-73
2022/03/23 03:45:31;;;;;;;9.25;5.07;;;;;;;-2.47;81.15;96637.00;5103089;28;20040;-73
2022/03/23 03:47:57;;;;;;;10.48;5.00;;;;;;;-2.34;79.65;96641.69;5088688;28;20040;-73
2022/03/23 03:50:23;;;;;;;11.35;5.10;;;;;;;-2.32;80.20;96644.91;5088509;28;20050;-73
2022/03/23 03:52:48;;;;;;;8.73;4.50;;;;;;;-2.31;79.87;96643.94;5093563;28;20048;-73
2022/03/23 03:55:14;;;;;;;11.95;5.45;;;;;;;-2.33;80.06;96640.72;5094846;28;20040;-72
2022/03/23 03:57:39;;;;;;;11.60;5.38;;;;;;;-2.37;79.97;96642.00;5103516;28;20043;-72
2022/03/23 04:00:05;;;;;;;11.32;5.80;;;;;;;-2.34;80.08;96631.38;5088881;28;20119;-75
2022/03/23 04:02:31;;;;;;;10.23;5.28;;;;;;;-2.29;80.28;96639.41;5090658;28;20044;-74
2022/03/23 04:04:56;;;;;;;12.57;4.90;;;;;;;-2.35;80.31;96640.06;5081852;28;20040;-74
2022/03/23 04:07:22;;;;;;;12.77;5.28;;;;;;;-2.28;81.01;96643.63;5105803;28;20040;-74
2022/03/23 04:09:47;;;;;;;12.73;5.68;;;;;;;-2.29;79.89;96639.41;5096265;28;20679;-74
2022/03/23 04:12:13;;;;;;;14.63;5.60;;;;;;;-2.41;80.08;96651.03;5070693;28;20101;-75
2022/03/23 04:14:38;;;;;;;9.65;5.03;;;;;;;-2.37;80.27;96642.00;5092802;28;20040;-74
2022/03/23 04:17:05;;;;;;;9.90;5.13;;;;;;;-2.36;80.60;96638.44;5102551;28;20047;-74
2022/03/23 04:19:30;;;;;;;12.35;5.32;;;;;;;-2.37;80.40;96647.16;5099963;28;20063;-74
2022/03/23 04:21:56;;;;;;;10.85;5.38;;;;;;;-2.40;79.96;96647.47;5093192;28;22141;-74
2022/03/23 04:24:21;;;;;;;13.68;5.30;;;;;;;-2.34;80.15;96651.16;5091359;28;20097;-74
2022/03/23 04:26:47;;;;;;;11.23;5.60;;;;;;;-2.44;80.71;96652.13;5103767;28;20050;-74
2022/03/23 04:29:12;;;;;;;11.68;5.80;;;;;;;-2.46;81.27;96653.25;5107041;28;20040;-74
2022/03/23 04:31:38;;;;;;;14.07;5.80;;;;;;;-2.39;81.34;96653.44;5092262;28;20066;-74
2022/03/23 04:34:04;;;;;;;14.70;5.55;;;;;;;-2.40;81.60;96652.63;5081628;27;20076;-74
2022/03/23 04:36:30;;;;;;;22.23;6.43;;;;;;;-2.47;81.37;96651.63;5110035;28;20063;-74
2022/03/23 04:38:55;;;;;;;16.48;5.70;;;;;;;-2.55;81.64;96654.22;5109110;28;20042;-74
2022/03/23 04:41:21;;;;;;;14.55;5.63;;;;;;;-2.68;82.12;96660.63;5092171;28;20047;-74
2022/03/23 04:43:46;;;;;;;13.13;5.88;;;;;;;-2.65;82.34;96660.31;5077318;28;20483;-74
2022/03/23 04:46:13;;;;;;;9.93;5.50;;;;;;;-2.58;82.13;96664.84;5108349;28;20032;-73
2022/03/23 04:48:39;;;;;;;20.98;5.28;;;;;;;-2.65;82.71;96670.63;5100779;28;20048;-73
2022/03/23 04:51:05;;;;;;;13.80;5.80;;;;;;;-2.66;82.58;96669.03;5073739;28;20109;-73
2022/03/23 04:53:30;;;;;;;10.57;5.68;;;;;;;-2.67;82.90;96672.56;5102568;28;20067;-74
2022/03/23 04:55:56;;;;;;;11.40;5.78;;;;;;;-2.70;83.50;96678.03;5089227;28;20036;-73
2022/03/23 04:58:22;;;;;;;13.43;5.53;;;;;;;-2.85;83.72;96674.44;5107005;28;20082;-74
2022/03/23 05:00:48;;;;;;;11.82;5.40;;;;;;;-2.85;84.12;96679.59;5091158;28;20067;-74
2022/03/23 05:03:13;;;;;;;11.15;5.63;;;;;;;-2.88;84.51;96682.47;5091235;28;20573;-73
2022/03/23 05:05:39;;;;;;;12.40;5.35;;;;;;;-2.71;82.78;96675.59;5082060;28;20071;-73
2022/03/23 05:08:05;;;;;;;9.63;5.68;;;;;;;-2.73;83.36;96678.34;5079574;28;20488;-73
2022/03/23 05:10:31;;;;;;;11.52;5.68;;;;;;;-2.74;83.01;96686.19;5078574;28;20054;-73
2022/03/23 05:12:57;;;;;;;11.43;5.60;;;;;;;-2.68;82.94;96691.56;5074690;28;20065;-73
2022/03/23 05:15:23;;;;;;;12.20;5.32;;;;;;;-2.72;nan;96685.09;5100772;28;20073;-73
2022/03/23 05:17:48;;;;;;;13.35;5.57;;;;;;;-2.71;82.20;96686.72;5092528;28;20093;-73
2022/03/23 05:20:18;;;;;;;13.15;5.38;;;;;;;-2.71;82.09;96681.56;5096791;28;20040;-73
2022/03/23 05:22:44;;;;;;;12.38;5.57;;;;;;;-2.66;82.80;96692.22;5103739;28;20032;-73
2022/03/23 05:25:10;;;;;;;15.15;5.35;;;;;;;-2.64;82.29;96681.75;5100819;28;20044;-73
2022/03/23 05:27:37;;;;;;;12.43;5.40;;;;;;;-2.62;82.30;96696.06;5091096;28;20052;-73
2022/03/23 05:30:07;;;;;;;14.82;5.75;;;;;;;-2.59;82.42;96694.16;5073664;28;20047;-73
2022/03/23 05:32:34;;;;;;;16.48;5.50;;;;;;;-2.61;82.58;96695.13;5072619;28;20040;-73
2022/03/23 05:34:59;;;;;;;11.13;5.35;;;;;;;-2.63;82.17;96694.47;5099337;28;20040;-73
2022/03/23 05:37:25;;;;;;;13.15;5.80;;;;;;;-2.65;82.21;96695.59;5091608;28;20104;-73
2022/03/23 05:39:51;;;;;;;14.85;5.28;;;;;;;-2.64;82.29;96692.84;5096007;28;20532;-74
2022/03/23 05:42:17;;;;;;;13.55;5.88;;;;;;;-2.56;82.06;96689.47;5089378;27;20038;-73
2022/03/23 05:44:42;;;;;;;12.55;5.00;;;;;;;-2.51;82.19;96696.75;5096623;27;20040;-73
2022/03/23 05:47:08;;;;;;;10.48;5.43;;;;;;;-2.43;81.83;96699.34;5108325;28;20051;-73
2022/03/23 05:49:33;;;;;;;11.80;5.88;;;;;;;-2.35;81.59;96696.78;5097928;28;20069;-73
2022/03/23 05:51:59;;;;;;;10.73;5.50;;;;;;;-2.33;81.24;96700.03;5078927;28;20062;-72
2022/03/23 05:54:25;;;;;;;14.57;5.95;;;;;;;-2.27;81.03;96699.38;5105632;28;20048;-73
2022/03/23 05:56:52;;;;;;;12.60;6.22;;;;;;;-2.24;80.88;96697.44;5094092;28;20040;-73
2022/03/23 05:59:18;;;;;;;16.42;6.07;;;;;;;-2.25;81.28;96706.16;5098172;28;20044;-73
2022/03/23 06:01:45;;;;;;;10.65;5.53;;;;;;;-2.27;81.51;96703.72;5090403;28;20044;-72
2022/03/23 06:04:10;;;;;;;12.30;5.93;;;;;;;-2.25;81.54;96706.16;5100312;28;20051;-72
2022/03/23 06:06:36;;;;;;;13.20;6.22;;;;;;;-2.20;81.67;96711.63;5097195;28;20413;-73
2022/03/23 06:09:03;;;;;;;10.98;5.95;;;;;;;-2.13;81.36;96710.03;5093451;28;20114;-73
2022/03/23 06:11:28;;;;;;;13.90;6.15;;;;;;;-2.11;82.03;96708.13;5090185;28;20083;-73
2022/03/23 06:13:54;;;;;;;13.07;6.00;;;;;;;-2.03;81.95;96704.72;5094883;28;20048;-73
2022/03/23 06:16:20;;;;;;;15.48;6.55;;;;;;;-1.94;82.04;96708.91;5094630;28;20044;-73
2022/03/23 06:18:49;;;;;;;14.93;6.35;;;;;;;-1.86;81.83;96706.34;5089707;28;20064;-73
2022/03/23 06:21:14;;;;;;;16.15;5.95;;;;;;;-1.85;82.21;96714.88;5095726;28;20039;-73
2022/03/23 06:23:40;;;;;;;10.43;5.63;;;;;;;-1.77;81.97;96712.31;5100657;28;20063;-70
2022/03/23 06:26:06;;;;;;;17.88;6.30;;;;;;;-1.59;82.04;96712.94;5095136;28;20036;-71
2022/03/23 06:28:32;;;;;;;22.02;6.25;;;;;;;-1.55;82.04;96720.34;5096754;28;20044;-73
2022/03/23 06:30:58;;;;;;;13.45;6.13;;;;;;;-1.60;82.30;96721.66;5097651;28;20035;-71
2022/03/23 06:33:24;;;;;;;14.40;6.07;;;;;;;-1.60;82.45;96716.50;5109020;28;20484;-71
2022/03/23 06:35:49;;;;;;;14.50;6.28;;;;;;;-1.58;82.95;96718.91;5093718;28;20048;-71
2022/03/23 06:38:15;;;;;;;17.77;6.88;;;;;;;-1.47;82.89;96725.53;5093268;28;20062;-71
2022/03/23 06:40:41;;;;;;;28.40;6.97;;;;;;;-1.41;82.95;96732.59;5109768;28;20085;-71
2022/03/23 06:43:07;;;;;;;14.73;6.40;;;;;;;-1.30;83.18;96731.47;5101897;28;20036;-71
2022/03/23 06:45:32;;;;;;;18.95;6.25;;;;;;;-1.23;82.16;96722.09;5101964;28;20169;-72
2022/03/23 06:47:58;;;;;;;13.32;6.50;;;;;;;-1.02;83.27;96729.31;5098547;28;20040;-72
2022/03/23 06:50:24;;;;;;;11.75;6.00;;;;;;;-0.88;82.69;96718.28;5107629;28;20803;-72
2022/03/23 06:52:50;;;;;;;18.23;6.60;;;;;;;-0.70;82.54;96725.00;5109032;27;20519;-73
2022/03/23 06:55:15;;;;;;;13.25;6.50;;;;;;;-0.50;82.42;96728.00;5099576;28;20036;-73
2022/03/23 06:57:41;;;;;;;12.73;6.38;;;;;;;-0.04;79.46;96727.25;5090747;28;20066;-72
2022/03/23 07:00:15;;;;;;;12.40;6.18;;;;;;;0.30;77.63;96726.00;5098333;28;20074;-73
2022/03/23 07:02:45;;;;;;;15.82;6.22;;;;;;;0.40;78.82;96726.56;5097877;28;20036;-73
2022/03/23 07:05:12;;;;;;;13.07;6.07;;;;;;;0.69;76.18;96727.66;5089086;28;20516;-73
2022/03/23 07:07:38;;;;;;;11.45;5.78;;;;;;;1.18;73.23;96727.13;5076152;28;20397;-72
2022/03/23 07:10:05;;;;;;;14.07;6.07;;;;;;;1.47;73.27;96725.47;5089147;28;20048;-73
2022/03/23 07:12:31;;;;;;;13.82;5.68;;;;;;;1.76;70.61;96729.00;5103862;28;20089;-73
2022/03/23 07:14:57;;;;;;;12.25;6.07;;;;;;;2.04;69.18;96725.69;5102460;28;20497;-73
2022/03/23 07:17:23;;;;;;;11.68;5.45;;;;;;;2.21;69.48;96724.47;5100230;28;20131;-71
2022/03/23 07:19:49;;;;;;;12.25;6.05;;;;;;;2.31;68.84;96725.94;5097897;28;20044;-72
2022/03/23 07:22:15;;;;;;;11.55;5.82;;;;;;;2.81;67.48;96725.94;5104864;28;20063;-71
2022/03/23 07:24:42;;;;;;;11.52;6.28;;;;;;;2.99;66.90;96733.22;5107478;28;20142;-73
2022/03/23 07:27:08;;;;;;;12.35;6.30;;;;;;;3.61;63.35;96732.34;5099381;28;20096;-73
2022/03/23 07:29:35;;;;;;;17.90;6.32;;;;;;;3.98;61.98;96732.84;5093064;28;20043;-74
2022/03/23 07:32:01;;;;;;;18.20;6.50;;;;;;;3.91;61.96;96737.25;5076700;28;20060;-73
2022/03/23 07:34:26;;;;;;;17.27;7.20;;;;;;;4.34;61.85;96731.72;5098913;28;20039;-74
2022/03/23 07:36:52;;;;;;;13.60;6.70;;;;;;;4.57;59.87;96735.75;5107433;28;20100;-74
2022/03/23 07:39:21;;;;;;;14.50;6.45;;;;;;;5.13;57.62;96733.66;5101508;28;20493;-73
2022/03/23 07:41:52;;;;;;;16.40;7.00;;;;;;;5.56;56.70;96727.94;5102346;28;20489;-72
2022/03/23 07:44:18;;;;;;;15.75;8.00;;;;;;;5.70;56.28;96729.47;5079180;28;20040;-73
2022/03/23 07:46:46;;;;;;;15.90;8.00;;;;;;;5.58;56.40;96735.56;5107731;28;20442;-72
2022/03/23 07:49:14;;;;;;;14.77;7.57;;;;;;;5.36;57.98;96744.44;5106787;28;20039;-73
2022/03/23 07:51:40;;;;;;;16.15;7.72;;;;;;;5.30;57.01;96737.44;5094462;28;20120;-74
2022/03/23 07:54:06;;;;;;;17.00;8.52;;;;;;;5.34;56.89;96733.41;5101932;28;20040;-74
2022/03/23 07:56:32;;;;;;;16.77;8.35;;;;;;;5.97;53.87;96729.34;5092636;28;20047;-73
2022/03/23 07:58:58;;;;;;;16.35;7.75;;;;;;;6.22;52.67;96728.59;5102002;28;20047;-72
2022/03/23 08:01:24;;;;;;;17.88;8.27;;;;;;;6.73;50.43;96729.44;5099566;28;20052;-74
2022/03/23 08:03:49;;;;;;;18.33;8.23;;;;;;;6.62;49.96;96736.16;5103227;28;20093;-73
2022/03/23 08:06:15;;;;;;;16.50;8.20;;;;;;;6.69;51.72;96736.91;5112008;27;20043;-73
2022/03/23 08:08:41;;;;;;;15.93;8.48;;;;;;;6.73;49.62;96738.06;5097643;28;20043;-73
2022/03/23 08:11:07;;;;;;;17.17;8.50;;;;;;;7.24;47.40;96738.00;5103098;28;20051;-73
2022/03/23 08:13:32;;;;;;;19.38;8.13;;;;;;;7.34;48.38;96746.19;5097147;28;20070;-73
2022/03/23 08:15:58;;;;;;;17.58;8.55;;;;;;;7.32;47.77;96745.59;5092196;28;20040;-73
2022/03/23 08:18:24;;;;;;;15.88;8.70;;;;;;;7.24;48.09;96735.38;5094860;28;20044;-73
2022/03/23 08:20:50;;;;;;;15.25;8.90;;;;;;;7.25;47.75;96739.63;5084518;28;20043;-75
2022/03/23 08:23:16;;;;;;;22.65;9.40;;;;;;;7.39;48.31;96746.31;5101182;28;20040;-75
2022/03/23 08:25:43;;;;;;;17.10;8.88;;;;;;;7.37;47.22;96742.31;5081822;28;20042;-74
2022/03/23 08:28:11;;;;;;;15.07;9.02;;;;;;;7.24;48.37;96744.06;5112425;28;20046;-73
2022/03/23 08:30:37;;;;;;;17.23;9.32;;;;;;;7.39;46.84;96743.69;5109307;28;20071;-72
2022/03/23 08:33:04;;;;;;;15.88;9.30;;;;;;;7.48;46.64;96743.41;5093270;28;20051;-73
2022/03/23 08:35:31;;;;;;;18.65;8.70;;;;;;;7.44;46.63;96743.03;5098859;28;20050;-72
2022/03/23 08:37:57;;;;;;;22.60;11.02;;;;;;;7.72;45.97;96739.88;5112410;28;20485;-75
2022/03/23 08:40:23;;;;;;;17.20;9.48;;;;;;;7.81;44.76;96740.38;5107230;28;20046;-73
2022/03/23 08:42:49;;;;;;;21.35;10.13;;;;;;;7.89;44.73;96741.91;5099488;28;20088;-73
2022/03/23 08:45:15;;;;;;;23.48;10.90;;;;;;;7.87;44.98;96741.31;5085965;28;20446;-73
2022/03/23 08:47:42;;;;;;;19.83;10.02;;;;;;;8.01;43.69;96748.00;5105208;28;20040;-72
2022/03/23 08:50:10;;;;;;;22.27;10.40;;;;;;;8.21;43.25;96747.72;5100030;28;20046;-73
2022/03/23 08:52:37;;;;;;;20.67;10.60;;;;;;;8.21;43.65;96752.97;5108804;28;20035;-73
2022/03/23 08:55:04;;;;;;;24.05;10.57;;;;;;;8.25;43.50;96748.88;5108789;28;20039;-72
2022/03/23 08:57:30;;;;;;;20.42;11.40;;;;;;;8.53;41.86;96746.69;5089230;28;20044;-73
2022/03/23 08:59:56;;;;;;;25.65;11.50;;;;;;;8.62;42.11;96742.69;5094141;28;20096;-73
2022/03/23 09:02:22;;;;;;;32.13;11.82;;;;;;;8.95;41.84;96738.75;5097403;28;20538;-72
2022/03/23 09:04:47;;;;;;;27.20;12.05;;;;;;;8.95;40.75;96741.38;5077033;28;20047;-74
2022/03/23 09:07:13;;;;;;;21.17;11.63;;;;;;;9.00;41.18;96736.25;5111099;28;20055;-74
2022/03/23 09:09:38;;;;;;;32.42;11.80;;;;;;;9.13;40.46;96749.13;5112596;28;20039;-74
2022/03/23 09:12:05;;;;;;;25.88;11.43;;;;;;;9.58;39.42;96744.28;5085979;28;20395;-72
2022/03/23 09:14:30;;;;;;;25.02;12.70;;;;;;;9.50;40.01;96746.22;5105220;28;20039;-73
2022/03/23 09:16:56;;;;;;;23.90;12.73;;;;;;;9.54;38.87;96744.75;5087011;28;20042;-72
2022/03/23 09:19:22;;;;;;;23.73;12.15;;;;;;;9.63;39.57;96747.03;5086511;28;20043;-72
2022/03/23 09:21:48;;;;;;;26.17;13.30;;;;;;;9.77;39.56;96745.72;5110444;28;20051;-73
2022/03/23 09:24:14;;;;;;;25.90;12.73;;;;;;;10.11;37.96;96743.19;5097120;28;20040;-75
2022/03/23 09:26:39;;;;;;;27.17;13.52;;;;;;;9.94;38.64;96742.34;5091361;28;20051;-74
2022/03/23 09:29:07;;;;;;;36.35;14.00;;;;;;;9.86;38.59;96733.78;5107641;28;20116;-74
2022/03/23 09:31:34;;;;;;;35.35;15.05;;;;;;;10.44;37.74;96741.66;5108025;28;20047;-73
2022/03/23 09:34:02;;;;;;;32.92;14.30;;;;;;;10.83;37.15;96739.16;5087731;28;20040;-73
2022/03/23 09:39:15;;;;;;;33.05;15.68;;;;;;;10.88;37.34;96731.31;5108183;28;20627;-73
2022/03/23 09:41:44;;;;;;;35.05;15.40;;;;;;;10.71;37.99;96726.06;5088641;28;20035;-73
2022/03/23 09:44:10;;;;;;;33.15;15.35;;;;;;;10.80;37.89;96730.91;5094524;28;20046;-73
2022/03/23 09:46:35;;;;;;;32.97;15.73;;;;;;;11.38;35.91;96734.13;5092323;28;20562;-73
2022/03/23 09:49:02;;;;;;;35.15;17.73;;;;;;;11.25;36.71;96730.78;5102049;28;20036;-73
2022/03/23 09:51:32;;;;;;;30.85;15.77;;;;;;;11.58;35.91;96718.53;5091666;28;20043;-72
2022/03/23 09:53:58;;;;;;;34.17;16.50;;;;;;;11.65;36.65;96722.81;5108740;28;20447;-75
2022/03/23 09:56:24;;;;;;;34.63;16.50;;;;;;;11.94;36.72;96715.53;5100291;28;20548;-73
2022/03/23 09:58:50;;;;;;;39.20;17.00;;;;;;;11.93;35.60;96712.09;5077051;28;20055;-74
2022/03/23 10:01:28;;;;;;;41.00;17.67;;;;;;;12.00;36.55;96708.47;5071796;28;20047;-74
2022/03/23 10:04:12;;;;;;;35.22;16.25;;;;;;;12.16;36.59;96707.56;5103907;27;20068;-74
2022/03/23 10:06:59;;;;;;;42.95;16.80;;;;;;;12.07;35.41;96709.09;5105001;28;20044;-73
2022/03/23 10:09:25;;;;;;;42.13;17.52;;;;;;;12.45;35.01;96715.22;5097410;28;20066;-73
2022/03/23 10:12:41;;;;;;;50.42;19.33;;;;;;;12.78;34.18;96708.06;5092811;28;20112;-73
2022/03/23 10:16:01;;;;;;;35.60;17.23;;;;;;;13.07;33.25;96705.88;5071381;28;20032;-73
2022/03/23 10:18:52;;;;;;;40.95;18.70;;;;;;;13.85;31.77;96707.06;5093320;28;20051;-74
2022/03/23 10:21:22;;;;;;;40.55;18.60;;;;;;;14.64;30.91;96702.41;5090872;28;20084;-72
2022/03/23 10:24:10;;;;;;;40.90;19.27;;;;;;;16.28;29.34;96698.34;5090616;28;20043;-71
2022/03/23 10:26:37;;;;;;;49.00;19.73;;;;;;;16.76;28.75;96696.94;5085431;28;20052;-71
2022/03/23 10:29:04;;;;;;;42.63;19.65;;;;;;;16.79;27.79;96696.34;5108518;28;20039;-72
2022/03/23 10:31:31;;;;;;;41.65;18.25;;;;;;;18.16;27.37;96695.09;5104719;28;20053;-72
2022/03/23 10:34:08;;;;;;;41.63;19.02;;;;;;;18.24;26.84;96700.84;5102195;28;20036;-72
2022/03/23 10:36:39;;;;;;;38.22;20.02;;;;;;;19.21;26.05;96688.56;5098854;28;20657;-72
2022/03/23 10:39:10;;;;;;;45.65;21.50;;;;;;;18.91;25.04;96692.59;5096644;28;20417;-73
2022/03/23 10:41:36;;;;;;;38.80;20.58;;;;;;;18.39;25.48;96684.63;5099628;28;20047;-72
2022/03/23 10:44:02;;;;;;;38.38;20.75;;;;;;;17.56;25.80;96689.47;5096080;28;20497;-71
2022/03/23 10:46:27;;;;;;;40.05;20.95;;;;;;;18.97;25.32;96685.28;5072698;28;20093;-71
2022/03/23 10:49:03;;;;;;;41.97;20.52;;;;;;;19.54;24.27;96680.44;5102147;28;20463;-71
2022/03/23 10:51:30;;;;;;;38.90;19.67;;;;;;;20.28;23.85;96677.81;5106353;28;20617;-71
2022/03/23 10:53:57;;;;;;;37.85;19.60;;;;;;;20.41;22.99;96677.78;5079301;28;20409;-71
2022/03/23 10:56:37;;;;;;;39.28;18.45;;;;;;;20.43;22.82;96674.81;5103290;28;20078;-71
2022/03/23 10:59:15;;;;;;;36.38;18.42;;;;;;;21.02;22.88;96671.19;5089152;28;20044;-71
2022/03/23 11:02:04;;;;;;;36.10;16.95;;;;;;;20.79;23.22;96655.22;5092170;28;20170;-71
2022/03/23 11:04:44;;;;;;;26.98;15.93;;;;;;;21.62;22.20;96665.28;5098994;28;20050;-71
2022/03/23 11:07:42;;;;;;;23.30;14.50;;;;;;;22.23;21.09;96656.50;5101995;28;20544;-72
2022/03/23 11:15:49;;;;;;;22.23;14.27;;;;;;;20.70;21.64;96651.69;5095542;28;20040;-72
2022/03/23 11:18:17;;;;;;;22.67;13.65;;;;;;;21.05;21.78;96654.53;5088263;28;20519;-73
2022/03/23 11:20:43;;;;;;;18.63;13.57;;;;;;;22.17;20.13;96647.03;5094034;28;20043;-72
2022/03/23 11:23:36;;;;;;;21.30;13.55;;;;;;;22.90;20.47;96640.94;5086073;28;20046;-72
2022/03/23 11:26:10;;;;;;;16.77;13.10;;;;;;;23.05;19.38;96641.50;5071205;28;20062;-73
2022/03/23 11:28:41;;;;;;;23.98;12.73;;;;;;;20.98;20.46;96643.50;5100983;28;20032;-70
2022/03/23 11:31:09;;;;;;;19.40;13.50;;;;;;;21.14;20.63;96641.97;5110022;28;20501;-69
2022/03/23 11:33:37;;;;;;;18.38;12.63;;;;;;;22.23;20.69;96635.03;5104460;28;20040;-70
2022/03/23 11:36:06;;;;;;;18.15;12.63;;;;;;;23.44;19.51;96626.94;5106590;28;20038;-69
2022/03/23 11:38:33;;;;;;;20.75;13.57;;;;;;;23.02;19.82;96627.59;5101159;28;20040;-70
2022/03/23 11:40:59;;;;;;;18.25;13.25;;;;;;;24.04;18.13;96630.31;5093400;28;20040;-69
2022/03/23 11:43:29;;;;;;;21.40;13.15;;;;;;;22.41;19.26;96625.13;5100155;28;20043;-69
2022/03/23 11:45:56;;;;;;;19.25;13.75;;;;;;;21.94;20.49;96628.44;5115085;28;20043;-71
2022/03/23 11:48:22;;;;;;;20.88;13.15;;;;;;;22.88;20.40;96624.34;5114380;28;20096;-71